Time;durP1;ratioP1;P1;durP2;ratioP2;P2;SDS_P1;SDS_P2;PMS_P1;PMS_P2;Temp;Humidity;BMP_temperature;BMP_pressure;BME280_temperature;BME280_humidity;BME280_pressure;Samples;Min_cycle;Max_cycle;Signal;HPM_P1;HPM_P2
2023/07/22 00:01:29;;;;;;;3.80;1.20;;;12.10;99.90;;;;;;5058132;28;20212;-76
2023/07/22 00:04:01;;;;;;;4.00;1.30;;;12.30;99.90;;;;;;5056186;28;20201;-78
2023/07/22 00:06:32;;;;;;;2.85;1.25;;;12.40;99.90;;;;;;5054378;28;20194;-75
2023/07/22 00:09:03;;;;;;;3.25;1.20;;;12.50;99.90;;;;;;5061040;28;20651;-78
2023/07/22 00:11:34;;;;;;;5.22;1.10;;;12.70;99.90;;;;;;5060436;28;20264;-78
2023/07/22 00:14:07;;;;;;;3.47;1.10;;;12.70;99.90;;;;;;5054740;28;20228;-79
2023/07/22 00:16:37;;;;;;;3.70;1.20;;;12.90;99.90;;;;;;5054922;28;20654;-80
2023/07/22 00:19:08;;;;;;;3.25;1.00;;;13.00;99.90;;;;;;5056980;28;20201;-80
2023/07/22 00:21:39;;;;;;;3.08;1.17;;;13.00;99.90;;;;;;5067344;28;20198;-76
2023/07/22 00:24:10;;;;;;;6.35;1.30;;;13.10;99.90;;;;;;5066090;28;20204;-75
2023/07/22 00:26:41;;;;;;;4.07;1.20;;;13.30;99.90;;;;;;5057382;28;20196;-78
2023/07/22 00:29:14;;;;;;;4.70;1.50;;;13.30;99.90;;;;;;5069758;28;20551;-78
2023/07/22 00:31:45;;;;;;;2.75;1.10;;;13.50;99.90;;;;;;5061487;28;20200;-78
2023/07/22 00:34:16;;;;;;;3.92;1.27;;;13.60;99.90;;;;;;5058018;28;20710;-80
2023/07/22 00:36:47;;;;;;;1.55;1.00;;;13.70;99.90;;;;;;5056532;28;20558;-79
2023/07/22 00:39:18;;;;;;;2.17;1.20;;;13.80;99.90;;;;;;5065454;28;20691;-77
2023/07/22 00:41:49;;;;;;;2.35;1.10;;;13.70;99.90;;;;;;5074503;28;20227;-78
2023/07/22 00:44:22;;;;;;;2.20;1.13;;;13.80;99.90;;;;;;5059073;28;20201;-78
2023/07/22 00:46:56;;;;;;;2.83;1.00;;;13.90;99.90;;;;;;5054781;28;20280;-80
2023/07/22 00:49:28;;;;;;;3.72;1.00;;;14.00;99.90;;;;;;5054252;28;20637;-80
2023/07/22 00:52:04;;;;;;;3.53;1.10;;;14.10;99.90;;;;;;5054979;28;20205;-81
2023/07/22 00:54:35;;;;;;;3.97;1.10;;;14.10;99.90;;;;;;5054485;28;20225;-82
2023/07/22 00:57:06;;;;;;;2.05;0.90;;;14.20;99.90;;;;;;5071820;28;20578;-84
2023/07/22 00:59:39;;;;;;;2.58;1.00;;;14.10;99.90;;;;;;5053473;28;20205;-82
2023/07/22 01:02:10;;;;;;;2.28;1.10;;;14.20;99.90;;;;;;5054175;28;20221;-80
2023/07/22 01:04:41;;;;;;;1.65;1.00;;;14.30;99.90;;;;;;5054281;28;20189;-83
2023/07/22 01:07:12;;;;;;;2.28;1.00;;;14.40;99.90;;;;;;5053744;28;20193;-82
2023/07/22 01:09:44;;;;;;;1.20;1.00;;;14.50;99.90;;;;;;5054608;28;20229;-79
2023/07/22 01:12:15;;;;;;;7.20;1.08;;;14.60;99.90;;;;;;5054193;28;20190;-81
2023/07/22 01:14:48;;;;;;;3.60;1.00;;;14.70;99.90;;;;;;5053723;28;20567;-80
2023/07/22 01:17:19;;;;;;;3.00;1.10;;;14.70;99.90;;;;;;5058653;28;20208;-80
2023/07/22 01:19:53;;;;;;;2.30;0.90;;;14.80;99.90;;;;;;5054233;28;20201;-82
2023/07/22 01:22:26;;;;;;;3.40;1.08;;;14.90;99.90;;;;;;5053380;28;20204;-82
2023/07/22 01:24:59;;;;;;;2.63;0.90;;;15.00;99.90;;;;;;5061103;28;20299;-80
2023/07/22 01:27:30;;;;;;;2.92;0.90;;;15.10;99.90;;;;;;5065571;28;20201;-81
2023/07/22 01:30:02;;;;;;;2.22;0.90;;;15.20;99.90;;;;;;5056024;28;20192;-80
2023/07/22 01:32:33;;;;;;;2.08;0.90;;;15.20;99.90;;;;;;5053791;28;20201;-80
2023/07/22 01:35:04;;;;;;;1.83;0.88;;;15.40;99.90;;;;;;5051331;28;20213;-80
2023/07/22 01:37:35;;;;;;;2.00;1.00;;;15.40;99.90;;;;;;5072004;28;20569;-81
2023/07/22 01:40:12;;;;;;;3.15;0.80;;;15.50;99.90;;;;;;5052177;28;20197;-80
2023/07/22 01:42:43;;;;;;;3.97;1.30;;;15.60;99.90;;;;;;5058963;28;20216;-81
2023/07/22 01:45:14;;;;;;;3.28;1.00;;;15.60;99.90;;;;;;5058882;28;20683;-79
2023/07/22 01:47:45;;;;;;;2.22;0.93;;;15.60;99.90;;;;;;5069152;28;20288;-83
2023/07/22 01:50:18;;;;;;;2.22;1.15;;;15.80;99.90;;;;;;5073493;28;20266;-78
2023/07/22 01:52:49;;;;;;;3.72;0.90;;;15.80;99.90;;;;;;5062401;28;20193;-80
2023/07/22 01:55:21;;;;;;;1.98;0.93;;;15.90;99.90;;;;;;5053257;28;20304;-78
2023/07/22 01:57:52;;;;;;;3.10;0.90;;;16.00;99.90;;;;;;5065739;28;20211;-77
2023/07/22 02:00:23;;;;;;;3.28;1.52;;;16.10;99.90;;;;;;5071878;28;20185;-82
2023/07/22 02:02:54;;;;;;;2.05;1.00;;;16.10;99.90;;;;;;5051804;28;20296;-82
2023/07/22 02:05:24;;;;;;;3.55;1.10;;;16.10;99.90;;;;;;5060538;28;20204;-82
2023/07/22 02:07:56;;;;;;;2.28;0.93;;;16.10;99.90;;;;;;5052463;28;20201;-77
2023/07/22 02:10:29;;;;;;;1.77;1.00;;;16.20;99.90;;;;;;5059379;28;20201;-81
2023/07/22 02:13:00;;;;;;;2.10;0.90;;;16.20;99.90;;;;;;5062939;28;20561;-83
2023/07/22 02:15:30;;;;;;;1.52;0.80;;;16.20;99.90;;;;;;5063385;28;20304;-80
2023/07/22 02:18:01;;;;;;;2.67;1.00;;;16.30;99.90;;;;;;5053455;28;20280;-81
2023/07/22 02:20:32;;;;;;;3.17;0.95;;;16.40;99.90;;;;;;5052702;28;20284;-82
2023/07/22 02:23:03;;;;;;;1.52;0.80;;;16.50;99.90;;;;;;5050821;28;20194;-85
2023/07/22 02:25:36;;;;;;;3.88;1.00;;;16.60;99.90;;;;;;5052437;28;20201;-82
2023/07/22 02:28:07;;;;;;;2.80;0.90;;;16.70;99.90;;;;;;5052521;28;20571;-81
2023/07/22 02:30:38;;;;;;;4.05;0.90;;;16.70;99.90;;;;;;5057473;28;20196;-77
2023/07/22 02:33:10;;;;;;;1.75;0.85;;;16.80;99.90;;;;;;5053593;28;20194;-82
2023/07/22 02:35:41;;;;;;;2.15;1.00;;;16.90;99.90;;;;;;5069713;28;20208;-76
2023/07/22 02:38:12;;;;;;;1.98;0.90;;;17.00;99.90;;;;;;5059325;28;20285;-76
2023/07/22 02:40:44;;;;;;;1.85;0.75;;;17.00;99.90;;;;;;5052685;28;22597;-85
2023/07/22 02:43:15;;;;;;;1.67;0.70;;;17.10;99.90;;;;;;5065981;28;20215;-85
2023/07/22 02:45:46;;;;;;;2.47;0.70;;;17.20;99.90;;;;;;5056561;28;20189;-81
2023/07/22 02:48:17;;;;;;;5.03;1.10;;;17.20;99.90;;;;;;5055161;28;20653;-83
2023/07/22 02:50:48;;;;;;;2.65;0.90;;;17.30;99.90;;;;;;5055662;28;20201;-83
2023/07/22 02:53:18;;;;;;;1.17;0.70;;;17.30;99.90;;;;;;5076746;28;20658;-82
2023/07/22 02:55:51;;;;;;;4.45;0.90;;;17.30;99.90;;;;;;5065477;28;20656;-81
2023/07/22 02:58:22;;;;;;;2.03;0.80;;;17.30;99.90;;;;;;5054665;28;20201;-84
2023/07/22 03:00:53;;;;;;;2.65;0.88;;;17.40;99.90;;;;;;5056846;28;20729;-82
2023/07/22 03:03:24;;;;;;;1.98;0.63;;;17.50;99.90;;;;;;5056434;28;20280;-85
2023/07/22 03:05:55;;;;;;;1.92;0.80;;;17.50;99.90;;;;;;5056298;28;20630;-84
2023/07/22 03:08:26;;;;;;;1.00;0.88;;;17.60;99.90;;;;;;5055024;28;20243;-88
2023/07/22 03:10:59;;;;;;;1.80;0.82;;;17.60;99.90;;;;;;5056661;28;20508;-85
2023/07/22 03:13:30;;;;;;;1.85;0.88;;;17.60;99.90;;;;;;5056472;28;20194;-87
2023/07/22 03:16:03;;;;;;;2.15;0.88;;;17.60;99.90;;;;;;5055956;28;20577;-87
2023/07/22 03:18:34;;;;;;;2.92;0.70;;;17.50;99.90;;;;;;5056343;28;20726;-90
2023/07/22 03:21:05;;;;;;;1.05;0.70;;;17.30;99.90;;;;;;5056321;28;20200;-83
2023/07/22 03:23:36;;;;;;;2.10;0.90;;;17.10;99.90;;;;;;5056199;28;20213;-88
2023/07/22 03:26:09;;;;;;;2.15;0.70;;;17.10;99.90;;;;;;5056274;28;20224;-82
2023/07/22 03:28:41;;;;;;;1.20;0.80;;;17.10;99.90;;;;;;5056723;28;20235;-85
2023/07/22 03:31:12;;;;;;;2.72;1.30;;;17.30;99.90;;;;;;5056283;28;20260;-85
2023/07/22 03:33:46;;;;;;;2.72;0.80;;;17.30;99.90;;;;;;5056332;28;20633;-88
2023/07/22 03:36:16;;;;;;;1.27;0.70;;;17.50;99.90;;;;;;5055429;28;20221;-78
2023/07/22 03:38:47;;;;;;;1.48;0.80;;;17.60;99.90;;;;;;5055465;28;20196;-82
2023/07/22 03:41:20;;;;;;;1.58;0.85;;;17.70;99.90;;;;;;5055942;28;20221;-85
2023/07/22 03:43:50;;;;;;;3.15;0.90;;;17.80;99.90;;;;;;5055334;28;20202;-86
2023/07/22 03:46:21;;;;;;;3.63;1.20;;;17.80;99.90;;;;;;5055693;28;20204;-78
2023/07/22 03:48:52;;;;;;;2.65;1.20;;;17.80;99.90;;;;;;5055649;28;20196;-79
2023/07/22 03:51:23;;;;;;;1.13;1.02;;;17.60;99.90;;;;;;5055638;28;20261;-87
2023/07/22 03:53:54;;;;;;;4.22;1.00;;;17.40;99.90;;;;;;5054278;28;20200;-86
2023/07/22 03:56:27;;;;;;;2.78;1.20;;;17.00;99.90;;;;;;5055023;28;20232;-88
2023/07/22 03:58:58;;;;;;;1.77;1.02;;;16.80;99.90;;;;;;5055534;28;20193;-87
2023/07/22 04:01:28;;;;;;;2.45;1.10;;;16.70;99.90;;;;;;5054918;28;20205;-83
2023/07/22 04:03:59;;;;;;;1.45;1.10;;;16.50;99.90;;;;;;5069995;28;20728;-88
2023/07/22 04:06:30;;;;;;;3.35;1.63;;;16.40;99.90;;;;;;5075616;28;20649;-87
2023/07/22 04:09:01;;;;;;;2.05;1.52;;;16.40;99.90;;;;;;5075326;28;20236;-84
2023/07/22 04:11:34;;;;;;;2.50;1.17;;;16.40;99.90;;;;;;5055096;28;20208;-82
2023/07/22 04:14:05;;;;;;;1.60;1.20;;;16.30;99.90;;;;;;5055072;28;20193;-83
2023/07/22 04:16:35;;;;;;;4.57;1.23;;;16.30;99.90;;;;;;5054977;28;20221;-83
2023/07/22 04:19:06;;;;;;;1.13;0.93;;;16.20;99.90;;;;;;5055020;28;20189;-82
2023/07/22 04:21:37;;;;;;;2.35;1.35;;;16.10;99.90;;;;;;5055662;28;20627;-76
2023/07/22 04:24:10;;;;;;;2.83;1.38;;;16.10;99.90;;;;;;5053438;28;20243;-83
2023/07/22 04:26:44;;;;;;;3.70;1.90;;;16.10;99.90;;;;;;5054815;28;20531;-86
2023/07/22 04:29:15;;;;;;;2.88;1.50;;;16.10;99.90;;;;;;5054758;28;20196;-86
2023/07/22 04:31:46;;;;;;;1.67;1.17;;;16.00;99.90;;;;;;5054767;28;20251;-86
2023/07/22 04:34:17;;;;;;;2.83;1.23;;;16.00;99.90;;;;;;5053560;28;20201;-81
2023/07/22 04:36:47;;;;;;;2.08;1.40;;;15.90;99.90;;;;;;5054289;28;20225;-83
2023/07/22 04:39:18;;;;;;;1.48;1.13;;;16.00;99.90;;;;;;5053647;28;20208;-86
2023/07/22 04:41:51;;;;;;;1.80;1.20;;;16.10;99.90;;;;;;5054406;28;20225;-79
2023/07/22 04:44:23;;;;;;;1.45;1.00;;;16.30;99.90;;;;;;5054408;28;20185;-82
2023/07/22 04:46:54;;;;;;;2.03;1.25;;;16.20;99.90;;;;;;5054177;28;20244;-80
2023/07/22 04:49:25;;;;;;;2.30;1.15;;;16.10;99.90;;;;;;5053892;28;20207;-84
2023/07/22 04:51:56;;;;;;;4.10;1.38;;;16.10;99.90;;;;;;5052882;28;20715;-86
2023/07/22 04:54:28;;;;;;;2.08;0.98;;;16.10;99.90;;;;;;5054141;28;20212;-86
2023/07/22 04:57:02;;;;;;;2.15;1.10;;;16.00;99.90;;;;;;5054170;28;20271;-87
2023/07/22 04:59:33;;;;;;;2.00;1.30;;;15.90;99.90;;;;;;5054064;28;20276;-85
2023/07/22 05:02:04;;;;;;;3.13;1.10;;;15.80;99.90;;;;;;5054201;28;20185;-84
2023/07/22 05:04:35;;;;;;;3.47;1.10;;;15.80;99.90;;;;;;5052844;28;20194;-82
2023/07/22 05:07:06;;;;;;;2.70;1.30;;;15.70;99.90;;;;;;5073820;28;20563;-83
2023/07/22 05:09:37;;;;;;;3.15;1.30;;;15.70;99.90;;;;;;5073789;28;20486;-84
2023/07/22 05:12:10;;;;;;;1.13;1.00;;;15.80;99.90;;;;;;5073984;28;20196;-82
2023/07/22 05:14:41;;;;;;;1.67;1.08;;;15.90;99.90;;;;;;5073996;28;20276;-86
2023/07/22 05:17:11;;;;;;;2.38;1.10;;;16.00;99.90;;;;;;5073681;28;20227;-86
2023/07/22 05:19:42;;;;;;;1.70;1.00;;;16.10;99.90;;;;;;5069974;28;20279;-83
2023/07/22 05:22:13;;;;;;;1.35;1.00;;;16.20;99.90;;;;;;5053271;28;20328;-85
2023/07/22 05:24:44;;;;;;;2.45;0.90;;;16.10;99.90;;;;;;5053279;28;20661;-86
2023/07/22 05:27:16;;;;;;;2.38;1.05;;;16.00;99.90;;;;;;5053727;28;20272;-86
2023/07/22 05:29:47;;;;;;;2.05;0.88;;;16.00;99.90;;;;;;5053328;28;20282;-84
2023/07/22 05:32:18;;;;;;;1.77;0.85;;;15.90;99.90;;;;;;5053046;28;20197;-87
2023/07/22 05:34:49;;;;;;;2.33;1.10;;;15.90;99.90;;;;;;5052908;28;20197;-87
2023/07/22 05:37:20;;;;;;;2.05;1.00;;;15.80;99.90;;;;;;5053430;28;20217;-85
2023/07/22 05:39:50;;;;;;;1.80;1.10;;;15.80;99.90;;;;;;5053915;28;20186;-83
2023/07/22 05:42:23;;;;;;;1.67;1.05;;;15.80;99.90;;;;;;5067513;28;20227;-81
2023/07/22 05:44:54;;;;;;;1.35;0.93;;;15.80;99.90;;;;;;5073852;28;20651;-82
2023/07/22 05:47:25;;;;;;;2.70;1.00;;;15.80;99.90;;;;;;5073448;28;20559;-85
2023/07/22 05:49:56;;;;;;;3.40;1.17;;;15.80;99.90;;;;;;5073112;28;20276;-84
2023/07/22 05:52:26;;;;;;;2.08;0.90;;;15.80;99.90;;;;;;5071462;28;20284;-85
2023/07/22 05:54:57;;;;;;;1.23;1.00;;;15.70;99.90;;;;;;5052348;28;20223;-87
2023/07/22 05:57:30;;;;;;;3.38;1.05;;;15.70;99.90;;;;;;5053375;28;20217;-85
2023/07/22 06:00:01;;;;;;;3.03;1.50;;;15.70;99.90;;;;;;5055575;28;20204;-85
2023/07/22 06:02:32;;;;;;;2.45;1.15;;;15.70;99.90;;;;;;5052859;28;20267;-85
2023/07/22 06:05:03;;;;;;;2.72;1.10;;;15.60;99.90;;;;;;5052319;28;20204;-80
2023/07/22 06:07:34;;;;;;;3.20;1.60;;;15.60;99.90;;;;;;5053403;28;20297;-86
2023/07/22 06:10:05;;;;;;;2.60;1.30;;;15.50;99.90;;;;;;5052967;28;20324;-86
2023/07/22 06:12:38;;;;;;;2.10;1.25;;;15.50;99.90;;;;;;5053189;28;20185;-87
2023/07/22 06:15:10;;;;;;;2.80;1.15;;;15.50;99.90;;;;;;5053184;28;20193;-87
2023/07/22 06:17:40;;;;;;;1.92;1.10;;;15.50;99.90;;;;;;5058296;28;20221;-86
2023/07/22 06:20:12;;;;;;;3.35;1.23;;;15.50;99.90;;;;;;5059822;28;20194;-88
2023/07/22 06:22:43;;;;;;;3.97;1.13;;;15.40;99.90;;;;;;5059370;28;20193;-87
2023/07/22 06:25:14;;;;;;;2.03;1.27;;;15.40;99.90;;;;;;5059632;28;20193;-87
2023/07/22 06:27:47;;;;;;;3.05;1.23;;;15.40;99.90;;;;;;5059581;28;20193;-87
2023/07/22 06:30:17;;;;;;;3.20;1.30;;;15.20;99.90;;;;;;5061098;28;20197;-86
2023/07/22 06:32:48;;;;;;;4.50;1.48;;;15.20;99.90;;;;;;5059049;28;20700;-86
2023/07/22 06:35:19;;;;;;;2.67;1.67;;;15.20;99.90;;;;;;5059512;28;20193;-86
2023/07/22 06:37:50;;;;;;;3.67;1.58;;;15.20;99.90;;;;;;5059575;28;20217;-85
2023/07/22 06:40:21;;;;;;;4.00;1.50;;;15.10;99.90;;;;;;5059570;28;20193;-87
2023/07/22 06:42:53;;;;;;;3.83;1.55;;;15.10;99.90;;;;;;5059004;28;20203;-86
2023/07/22 06:45:24;;;;;;;4.95;1.80;;;15.00;99.90;;;;;;5059564;28;20215;-88
2023/07/22 06:47:55;;;;;;;3.63;1.55;;;14.90;99.90;;;;;;5059456;28;20231;-85
2023/07/22 06:50:25;;;;;;;4.85;1.80;;;14.90;99.90;;;;;;5060845;28;20235;-86
2023/07/22 06:52:56;;;;;;;5.00;1.92;;;14.80;99.90;;;;;;5059528;28;20203;-87
2023/07/22 06:55:27;;;;;;;4.88;1.45;;;14.80;99.90;;;;;;5060371;28;20198;-85
2023/07/22 06:58:02;;;;;;;4.15;1.77;;;14.80;99.90;;;;;;5067946;28;20578;-87
2023/07/22 07:00:33;;;;;;;3.58;1.38;;;14.70;99.90;;;;;;5060638;28;20192;-86
2023/07/22 07:03:03;;;;;;;2.33;1.50;;;14.60;99.90;;;;;;5068705;28;20203;-86
2023/07/22 07:05:34;;;;;;;4.47;1.90;;;14.60;99.90;;;;;;5070432;28;20235;-83
2023/07/22 07:08:05;;;;;;;3.90;1.83;;;14.50;99.90;;;;;;5060431;28;20251;-82
2023/07/22 07:10:41;;;;;;;3.90;1.85;;;14.50;99.90;;;;;;5078743;28;20197;-82
2023/07/22 07:13:14;;;;;;;1.90;1.50;;;14.50;99.90;;;;;;5079037;28;20200;-83
2023/07/22 07:15:48;;;;;;;3.85;1.67;;;14.40;99.90;;;;;;5078916;28;20192;-80
2023/07/22 07:18:19;;;;;;;4.75;1.73;;;14.40;99.90;;;;;;5076730;28;20725;-81
2023/07/22 07:20:51;;;;;;;3.10;1.65;;;14.30;99.90;;;;;;5076151;28;20201;-82
2023/07/22 07:23:22;;;;;;;2.78;1.73;;;14.30;99.90;;;;;;5070996;28;20200;-82
2023/07/22 07:25:53;;;;;;;4.22;2.20;;;14.20;99.90;;;;;;5075474;28;20212;-80
2023/07/22 07:28:26;;;;;;;5.60;2.05;;;14.20;99.90;;;;;;5064458;28;20205;-83
2023/07/22 07:30:57;;;;;;;6.18;2.15;;;14.10;99.90;;;;;;5066067;28;20204;-82
2023/07/22 07:33:28;;;;;;;4.43;2.03;;;14.10;99.90;;;;;;5075302;28;20204;-85
2023/07/22 07:35:59;;;;;;;5.68;2.13;;;14.10;99.90;;;;;;5075177;28;20683;-85
2023/07/22 07:38:30;;;;;;;5.60;2.10;;;14.00;99.90;;;;;;5075536;28;20574;-86
2023/07/22 07:41:08;;;;;;;4.25;1.60;;;14.00;99.90;;;;;;5075426;28;20279;-85
2023/07/22 07:43:40;;;;;;;4.82;1.90;;;13.90;99.90;;;;;;5054265;28;21701;-83
2023/07/22 07:46:20;;;;;;;4.18;1.98;;;13.90;99.90;;;;;;5059093;28;20201;-85
2023/07/22 07:48:51;;;;;;;2.88;1.80;;;13.90;99.90;;;;;;5073366;28;20663;-86
2023/07/22 07:51:23;;;;;;;3.20;1.92;;;13.80;99.90;;;;;;5063599;28;20193;-87
2023/07/22 07:53:54;;;;;;;2.55;1.73;;;13.80;99.90;;;;;;5079425;28;20189;-85
2023/07/22 07:56:25;;;;;;;3.75;1.85;;;13.70;99.90;;;;;;5074476;28;20216;-85
2023/07/22 07:58:58;;;;;;;3.05;1.60;;;13.70;99.90;;;;;;5063902;28;20671;-79
2023/07/22 08:01:29;;;;;;;3.28;1.70;;;13.70;99.90;;;;;;5064215;28;20197;-78
2023/07/22 08:03:59;;;;;;;4.55;1.80;;;13.60;99.90;;;;;;5072432;28;20653;-84
2023/07/22 08:06:30;;;;;;;3.78;1.88;;;13.60;99.90;;;;;;5066232;28;20205;-81
2023/07/22 08:09:01;;;;;;;3.33;1.90;;;13.60;99.90;;;;;;5073985;28;20224;-76
2023/07/22 08:11:32;;;;;;;3.38;2.20;;;13.60;99.90;;;;;;5074670;28;20197;-82
2023/07/22 08:14:05;;;;;;;4.55;2.22;;;13.50;99.90;;;;;;5065110;28;20293;-77
2023/07/22 08:16:36;;;;;;;4.25;2.10;;;13.60;99.90;;;;;;5071336;28;20212;-76
2023/07/22 08:19:07;;;;;;;6.95;2.38;;;13.50;99.90;;;;;;5070465;28;20239;-77
2023/07/22 08:21:38;;;;;;;4.15;2.30;;;13.40;99.90;;;;;;5064603;28;20560;-84
2023/07/22 08:24:09;;;;;;;5.40;3.00;;;13.40;99.90;;;;;;5071079;28;20220;-77
2023/07/22 08:26:40;;;;;;;5.78;2.80;;;13.40;99.90;;;;;;5060933;28;20243;-85
2023/07/22 08:29:12;;;;;;;3.90;2.30;;;13.40;99.90;;;;;;5064115;28;20209;-79
2023/07/22 08:31:43;;;;;;;4.68;2.63;;;13.30;99.90;;;;;;5073210;28;20207;-79
2023/07/22 08:34:14;;;;;;;5.75;2.85;;;13.30;99.90;;;;;;5060460;28;20558;-76
2023/07/22 08:36:45;;;;;;;6.10;2.75;;;13.30;99.90;;;;;;5068343;28;20680;-82
2023/07/22 08:39:16;;;;;;;5.07;2.78;;;13.20;99.90;;;;;;5072762;28;20201;-77
2023/07/22 08:41:52;;;;;;;5.72;2.88;;;13.20;99.90;;;;;;5069237;28;20216;-83
2023/07/22 08:44:27;;;;;;;6.00;2.85;;;13.20;99.90;;;;;;5073974;28;20204;-82
2023/07/22 08:47:01;;;;;;;7.45;3.00;;;13.10;99.90;;;;;;5073492;28;20204;-85
2023/07/22 08:49:35;;;;;;;6.65;3.00;;;13.10;99.90;;;;;;5057431;28;20203;-83
2023/07/22 08:52:06;;;;;;;4.63;3.00;;;13.10;99.90;;;;;;5062212;28;20201;-82
2023/07/22 08:54:38;;;;;;;4.40;3.55;;;13.00;99.90;;;;;;5073992;28;20199;-81
2023/07/22 08:57:10;;;;;;;7.68;4.00;;;13.00;99.90;;;;;;5073872;28;20323;-83
2023/07/22 08:59:43;;;;;;;6.43;4.38;;;12.90;99.90;;;;;;5061302;28;20287;-84
2023/07/22 09:02:16;;;;;;;6.40;4.32;;;12.90;99.90;;;;;;5073842;28;20287;-79
2023/07/22 09:04:47;;;;;;;8.00;4.28;;;12.80;99.90;;;;;;5073272;28;20201;-84
2023/07/22 09:07:19;;;;;;;6.38;3.95;;;12.80;99.90;;;;;;5069451;28;20691;-83
2023/07/22 09:09:51;;;;;;;6.82;4.13;;;12.70;99.90;;;;;;5073563;28;20228;-82
2023/07/22 09:12:23;;;;;;;6.68;4.43;;;12.70;99.90;;;;;;5071015;28;20197;-83
2023/07/22 09:14:56;;;;;;;7.63;4.30;;;12.60;99.90;;;;;;5073756;28;20189;-82
2023/07/22 09:17:27;;;;;;;7.15;4.45;;;12.50;99.90;;;;;;5066888;28;20219;-83
2023/07/22 09:19:58;;;;;;;7.18;4.45;;;12.50;99.90;;;;;;5073475;28;20652;-83
2023/07/22 09:22:29;;;;;;;6.43;4.35;;;12.40;99.90;;;;;;5071896;28;20287;-80
2023/07/22 09:25:16;;;;;;;7.25;4.85;;;12.30;99.90;;;;;;5073869;28;20213;-83
2023/07/22 09:27:47;;;;;;;10.23;4.63;;;12.30;99.90;;;;;;5073104;28;20200;-83
2023/07/22 09:30:31;;;;;;;7.82;4.82;;;12.30;99.90;;;;;;5073374;28;20196;-84
2023/07/22 09:33:03;;;;;;;6.55;4.32;;;12.30;99.90;;;;;;5073573;28;20196;-83
2023/07/22 09:35:46;;;;;;;7.75;4.30;;;12.20;99.90;;;;;;5069614;28;20204;-82
2023/07/22 09:38:17;;;;;;;8.20;4.68;;;12.20;99.90;;;;;;5058135;28;20224;-83
2023/07/22 09:40:48;;;;;;;6.72;4.35;;;12.20;99.90;;;;;;5057439;28;20225;-80
2023/07/22 09:43:18;;;;;;;7.72;5.18;;;12.10;99.90;;;;;;5070746;28;20284;-78
2023/07/22 09:45:53;;;;;;;7.05;4.43;;;12.10;99.90;;;;;;5071276;28;20197;-78
2023/07/22 09:48:25;;;;;;;8.90;4.90;;;12.00;99.90;;;;;;5065133;28;20719;-82
2023/07/22 09:51:00;;;;;;;8.88;4.85;;;12.00;99.90;;;;;;5059312;28;20278;-78
2023/07/22 09:53:31;;;;;;;8.20;4.70;;;12.00;99.90;;;;;;5062609;28;20197;-81
2023/07/22 09:56:07;;;;;;;7.50;4.20;;;11.90;99.90;;;;;;5063060;28;20197;-75
2023/07/22 09:58:39;;;;;;;8.55;4.65;;;11.90;99.90;;;;;;5069728;28;20644;-83
2023/07/22 10:01:14;;;;;;;8.43;4.88;;;11.90;99.90;;;;;;5064439;28;20200;-82
2023/07/22 10:03:48;;;;;;;8.57;4.97;;;11.80;99.90;;;;;;5068306;28;20196;-83
2023/07/22 10:06:19;;;;;;;7.72;4.47;;;11.70;99.90;;;;;;5058407;28;20536;-77
2023/07/22 10:08:50;;;;;;;9.05;5.00;;;11.70;99.90;;;;;;5072908;28;20254;-83
2023/07/22 10:11:21;;;;;;;10.60;4.78;;;11.70;99.90;;;;;;5058858;28;20210;-83
2023/07/22 10:13:52;;;;;;;7.43;4.43;;;11.70;99.90;;;;;;5060548;28;20223;-80
2023/07/22 10:16:26;;;;;;;9.40;4.80;;;11.70;99.90;;;;;;5056807;28;20204;-80
2023/07/22 10:18:57;;;;;;;8.35;4.53;;;11.60;99.90;;;;;;5051986;28;20220;-79
2023/07/22 10:21:30;;;;;;;10.50;4.43;;;11.60;99.90;;;;;;5071155;28;20197;-83
2023/07/22 10:24:04;;;;;;;7.90;4.18;;;11.60;99.90;;;;;;5072755;28;20656;-82
2023/07/22 10:26:36;;;;;;;7.13;4.35;;;11.60;99.90;;;;;;5059444;28;20208;-81
2023/07/22 10:29:07;;;;;;;9.60;4.30;;;11.60;99.90;;;;;;5069273;28;20204;-81
2023/07/22 10:31:40;;;;;;;7.40;4.00;;;11.60;99.90;;;;;;5065107;28;20193;-81
2023/07/22 10:34:11;;;;;;;7.50;4.03;;;11.50;99.90;;;;;;5058029;28;20572;-81
2023/07/22 10:36:42;;;;;;;7.60;4.10;;;11.50;99.90;;;;;;5072863;28;20610;-82
2023/07/22 10:39:26;;;;;;;6.57;4.07;;;11.50;99.90;;;;;;5070278;28;20236;-82
2023/07/22 10:42:04;;;;;;;9.07;4.70;;;11.50;99.90;;;;;;5068607;28;20231;-83
2023/07/22 10:44:35;;;;;;;7.43;4.45;;;11.40;99.90;;;;;;5067672;28;20658;-80
2023/07/22 10:47:09;;;;;;;8.48;4.93;;;11.40;99.90;;;;;;5064294;28;20204;-82
2023/07/22 10:49:51;;;;;;;7.60;4.60;;;11.40;99.90;;;;;;5062372;28;20197;-82
2023/07/22 10:52:47;;;;;;;7.22;4.50;;;11.40;99.90;;;;;;5066189;28;20244;-83
2023/07/22 10:55:21;;;;;;;8.57;4.47;;;11.40;99.90;;;;;;5072541;28;20627;-83
2023/07/22 10:57:54;;;;;;;8.30;4.88;;;11.40;99.90;;;;;;5072448;28;20231;-81
2023/07/22 11:00:25;;;;;;;10.20;5.68;;;11.30;99.90;;;;;;5059459;28;20197;-83
2023/07/22 11:03:18;;;;;;;13.48;6.82;;;11.30;99.90;;;;;;5064497;28;20240;-79
2023/07/22 11:05:56;;;;;;;12.25;7.32;;;11.30;99.90;;;;;;5065251;28;20349;-82
2023/07/22 11:08:50;;;;;;;14.30;8.50;;;11.30;99.90;;;;;;5075648;28;20229;-76
2023/07/22 11:11:23;;;;;;;15.32;9.48;;;11.30;99.90;;;;;;5065343;28;20222;-81
2023/07/22 11:13:55;;;;;;;13.93;8.95;;;11.40;99.90;;;;;;5076186;28;20652;-83
2023/07/22 11:16:26;;;;;;;12.93;9.20;;;11.30;99.90;;;;;;5062722;28;20559;-82
2023/07/22 11:18:58;;;;;;;14.27;9.05;;;11.40;99.90;;;;;;5058115;28;20292;-81
2023/07/22 11:21:29;;;;;;;15.30;8.57;;;11.30;99.90;;;;;;5074045;28;20196;-82
2023/07/22 11:24:00;;;;;;;17.38;9.25;;;11.30;99.90;;;;;;5076089;28;20197;-81
2023/07/22 11:26:31;;;;;;;14.15;8.57;;;11.30;99.90;;;;;;5064521;28;20193;-82
2023/07/22 11:29:02;;;;;;;11.40;7.82;;;11.20;99.90;;;;;;5063956;28;20199;-81
2023/07/22 11:31:38;;;;;;;16.33;8.00;;;11.30;99.90;;;;;;5068409;28;20283;-82
2023/07/22 11:34:11;;;;;;;15.32;7.50;;;11.20;99.90;;;;;;5069935;28;20207;-83
2023/07/22 11:36:42;;;;;;;14.32;7.82;;;11.20;99.90;;;;;;5066155;28;20194;-83
2023/07/22 11:39:15;;;;;;;12.77;7.80;;;11.20;99.90;;;;;;5075541;28;20260;-83
2023/07/22 11:41:46;;;;;;;12.30;7.75;;;11.20;99.90;;;;;;5074161;28;20221;-83
2023/07/22 11:44:18;;;;;;;15.10;8.63;;;11.20;99.90;;;;;;5075271;28;20682;-82
2023/07/22 11:46:56;;;;;;;13.38;7.80;;;11.20;99.90;;;;;;5075832;28;20717;-82
2023/07/22 11:49:30;;;;;;;15.13;8.77;;;11.20;99.90;;;;;;5075376;28;20562;-80
2023/07/22 11:52:03;;;;;;;15.73;8.00;;;11.10;99.90;;;;;;5075394;28;20681;-79
2023/07/22 11:54:35;;;;;;;14.75;8.13;;;11.10;99.90;;;;;;5062232;28;20206;-81
2023/07/22 11:57:15;;;;;;;13.50;7.63;;;11.10;99.90;;;;;;5052026;28;20198;-80
2023/07/22 11:59:48;;;;;;;12.73;7.65;;;11.00;99.90;;;;;;5064006;28;20193;-81
2023/07/22 12:02:19;;;;;;;14.30;7.80;;;11.00;99.90;;;;;;5063532;28;20602;-78
2023/07/22 12:04:58;;;;;;;12.48;7.28;;;11.00;99.90;;;;;;5065312;28;20196;-79
2023/07/22 12:07:30;;;;;;;10.85;7.00;;;11.00;99.90;;;;;;5065513;28;20203;-81
2023/07/22 12:10:03;;;;;;;13.25;7.30;;;10.90;99.90;;;;;;5072013;28;20689;-82
2023/07/22 12:12:37;;;;;;;12.07;7.07;;;10.90;99.90;;;;;;5060171;28;20673;-80
2023/07/22 12:15:15;;;;;;;12.98;7.55;;;10.90;99.90;;;;;;5062899;28;20199;-82
2023/07/22 12:17:50;;;;;;;11.85;6.90;;;10.90;99.90;;;;;;5074795;28;20280;-80
2023/07/22 12:20:25;;;;;;;13.05;7.70;;;10.80;99.90;;;;;;5074838;28;20203;-81
2023/07/22 12:22:56;;;;;;;14.55;7.50;;;10.80;99.90;;;;;;5072555;28;20197;-81
2023/07/22 12:25:27;;;;;;;11.02;6.47;;;10.80;99.90;;;;;;5074829;28;20192;-80
2023/07/22 12:27:58;;;;;;;14.23;6.78;;;10.80;99.90;;;;;;5063773;28;20568;-80
2023/07/22 12:30:29;;;;;;;12.90;7.18;;;10.70;99.90;;;;;;5068607;28;20276;-79
2023/07/22 12:33:00;;;;;;;12.45;6.80;;;10.70;99.90;;;;;;5074521;28;20205;-81
2023/07/22 12:35:32;;;;;;;14.27;7.00;;;10.70;99.90;;;;;;5074360;28;20292;-80
2023/07/22 12:38:03;;;;;;;10.57;6.53;;;10.70;99.90;;;;;;5074573;28;20228;-82
2023/07/22 12:40:34;;;;;;;12.45;6.88;;;10.70;99.90;;;;;;5074348;28;20316;-82
2023/07/22 12:43:05;;;;;;;11.80;6.40;;;10.70;99.90;;;;;;5074538;28;20197;-84
2023/07/22 12:45:35;;;;;;;11.93;6.82;;;10.70;99.90;;;;;;5070917;28;20201;-82
2023/07/22 12:48:07;;;;;;;11.40;6.88;;;10.80;99.90;;;;;;5072355;28;20193;-82
2023/07/22 12:50:39;;;;;;;11.30;6.32;;;10.80;99.90;;;;;;5074062;28;20574;-82
2023/07/22 12:53:10;;;;;;;14.32;7.00;;;10.70;99.90;;;;;;5074429;28;20671;-82
2023/07/22 12:55:41;;;;;;;11.02;6.38;;;10.70;99.90;;;;;;5060903;28;20203;-77
2023/07/22 12:58:12;;;;;;;11.60;6.65;;;10.60;99.90;;;;;;5068811;28;20221;-74
2023/07/22 13:00:43;;;;;;;11.02;6.88;;;10.60;99.90;;;;;;5058761;28;20194;-73
2023/07/22 13:03:13;;;;;;;10.73;5.88;;;10.50;99.90;;;;;;5058359;28;20193;-77
2023/07/22 13:05:46;;;;;;;10.75;6.00;;;10.50;99.90;;;;;;5069708;28;20196;-75
2023/07/22 13:08:17;;;;;;;9.70;6.30;;;10.50;99.90;;;;;;5072893;28;20209;-74
2023/07/22 13:10:48;;;;;;;10.75;6.50;;;10.50;99.90;;;;;;5062909;28;20284;-75